sensor_id;sensor_type;location;lat;lon;timestamp;P1;durP1;ratioP1;P2;durP2;ratioP2
38224;SDS011;24025;48.138;11.428;2023-08-24T00:46:44;5.68;;;4.68;;
38224;SDS011;24025;48.138;11.428;2023-08-24T00:49:16;5.40;;;4.72;;
38224;SDS011;24025;48.138;11.428;2023-08-24T00:51:47;8.88;;;4.47;;
38224;SDS011;24025;48.138;11.428;2023-08-24T00:54:19;5.90;;;4.60;;
38224;SDS011;24025;48.138;11.428;2023-08-24T00:56:50;7.90;;;5.25;;
38224;SDS011;24025;48.138;11.428;2023-08-24T00:59:22;7.25;;;4.40;;
38224;SDS011;24025;48.138;11.428;2023-08-24T01:01:54;5.22;;;4.72;;
38224;SDS011;24025;48.138;11.428;2023-08-24T01:04:27;11.00;;;4.65;;
38224;SDS011;24025;48.138;11.428;2023-08-24T01:06:58;6.28;;;4.45;;
38224;SDS011;24025;48.138;11.428;2023-08-24T01:09:30;8.38;;;4.60;;
38224;SDS011;24025;48.138;11.428;2023-08-24T01:12:08;7.38;;;4.50;;
38224;SDS011;24025;48.138;11.428;2023-08-24T01:15:03;7.53;;;4.70;;
38224;SDS011;24025;48.138;11.428;2023-08-24T01:17:39;7.65;;;4.53;;
38224;SDS011;24025;48.138;11.428;2023-08-24T01:20:14;7.45;;;4.80;;
38224;SDS011;24025;48.138;11.428;2023-08-24T01:22:51;11.57;;;4.65;;
38224;SDS011;24025;48.138;11.428;2023-08-24T01:28:11;8.48;;;4.70;;
38224;SDS011;24025;48.138;11.428;2023-08-24T01:30:44;4.95;;;4.03;;
38224;SDS011;24025;48.138;11.428;2023-08-24T01:35:47;5.07;;;4.57;;
38224;SDS011;24025;48.138;11.428;2023-08-24T01:43:45;7.63;;;4.53;;
38224;SDS011;24025;48.138;11.428;2023-08-24T01:46:21;5.40;;;4.60;;
38224;SDS011;24025;48.138;11.428;2023-08-24T01:48:53;6.80;;;4.95;;
38224;SDS011;24025;48.138;11.428;2023-08-24T01:51:26;9.23;;;5.00;;
38224;SDS011;24025;48.138;11.428;2023-08-24T01:53:58;6.47;;;4.40;;
38224;SDS011;24025;48.138;11.428;2023-08-24T01:56:30;8.98;;;4.78;;
38224;SDS011;24025;48.138;11.428;2023-08-24T01:59:01;7.63;;;4.70;;
38224;SDS011;24025;48.138;11.428;2023-08-24T02:01:33;4.93;;;4.40;;
38224;SDS011;24025;48.138;11.428;2023-08-24T02:04:05;7.97;;;4.55;;
38224;SDS011;24025;48.138;11.428;2023-08-24T02:06:36;7.07;;;4.68;;
38224;SDS011;24025;48.138;11.428;2023-08-24T02:09:08;7.45;;;4.85;;
38224;SDS011;24025;48.138;11.428;2023-08-24T02:11:39;7.40;;;5.60;;
38224;SDS011;24025;48.138;11.428;2023-08-24T02:14:11;7.75;;;4.80;;
38224;SDS011;24025;48.138;11.428;2023-08-24T02:19:14;10.80;;;4.90;;
38224;SDS011;24025;48.138;11.428;2023-08-24T02:21:46;5.40;;;4.90;;
38224;SDS011;24025;48.138;11.428;2023-08-24T02:24:17;6.43;;;5.00;;
38224;SDS011;24025;48.138;11.428;2023-08-24T02:26:49;11.25;;;4.30;;
38224;SDS011;24025;48.138;11.428;2023-08-24T02:29:20;6.13;;;4.55;;
38224;SDS011;24025;48.138;11.428;2023-08-24T02:31:52;6.10;;;4.70;;
38224;SDS011;24025;48.138;11.428;2023-08-24T02:34:24;7.85;;;4.60;;
38224;SDS011;24025;48.138;11.428;2023-08-24T02:36:56;8.18;;;5.28;;
38224;SDS011;24025;48.138;11.428;2023-08-24T02:39:28;7.75;;;4.95;;
38224;SDS011;24025;48.138;11.428;2023-08-24T02:41:59;8.07;;;5.18;;
38224;SDS011;24025;48.138;11.428;2023-08-24T02:44:31;5.97;;;4.55;;
38224;SDS011;24025;48.138;11.428;2023-08-24T02:47:03;6.40;;;5.20;;
38224;SDS011;24025;48.138;11.428;2023-08-24T02:49:35;8.38;;;5.10;;
38224;SDS011;24025;48.138;11.428;2023-08-24T02:52:07;8.13;;;5.07;;
38224;SDS011;24025;48.138;11.428;2023-08-24T02:54:38;7.60;;;5.40;;
38224;SDS011;24025;48.138;11.428;2023-08-24T02:57:10;11.02;;;5.97;;
38224;SDS011;24025;48.138;11.428;2023-08-24T02:59:41;5.72;;;5.05;;
38224;SDS011;24025;48.138;11.428;2023-08-24T03:02:14;10.50;;;5.10;;
38224;SDS011;24025;48.138;11.428;2023-08-24T03:04:46;6.85;;;4.70;;
38224;SDS011;24025;48.138;11.428;2023-08-24T03:07:17;6.13;;;4.97;;
38224;SDS011;24025;48.138;11.428;2023-08-24T03:09:49;6.28;;;5.20;;
38224;SDS011;24025;48.138;11.428;2023-08-24T03:12:21;5.38;;;4.32;;
38224;SDS011;24025;48.138;11.428;2023-08-24T03:14:52;7.25;;;5.25;;
38224;SDS011;24025;48.138;11.428;2023-08-24T03:17:25;9.20;;;5.57;;
38224;SDS011;24025;48.138;11.428;2023-08-24T03:19:57;7.78;;;5.55;;
38224;SDS011;24025;48.138;11.428;2023-08-24T03:22:28;4.82;;;4.38;;
38224;SDS011;24025;48.138;11.428;2023-08-24T03:25:00;6.78;;;5.10;;
38224;SDS011;24025;48.138;11.428;2023-08-24T03:27:32;6.60;;;5.10;;
38224;SDS011;24025;48.138;11.428;2023-08-24T03:30:03;7.03;;;4.97;;
38224;SDS011;24025;48.138;11.428;2023-08-24T03:32:36;8.95;;;4.60;;
38224;SDS011;24025;48.138;11.428;2023-08-24T03:35:07;7.13;;;5.30;;
38224;SDS011;24025;48.138;11.428;2023-08-24T03:37:39;6.65;;;5.05;;
38224;SDS011;24025;48.138;11.428;2023-08-24T03:40:11;6.40;;;5.50;;
38224;SDS011;24025;48.138;11.428;2023-08-24T03:42:43;7.95;;;5.55;;
38224;SDS011;24025;48.138;11.428;2023-08-24T03:45:15;7.15;;;4.88;;
38224;SDS011;24025;48.138;11.428;2023-08-24T03:47:46;11.50;;;5.60;;
38224;SDS011;24025;48.138;11.428;2023-08-24T03:50:19;7.10;;;5.03;;
38224;SDS011;24025;48.138;11.428;2023-08-24T03:52:50;8.95;;;5.75;;
38224;SDS011;24025;48.138;11.428;2023-08-24T03:55:22;6.78;;;5.47;;
38224;SDS011;24025;48.138;11.428;2023-08-24T03:57:54;6.90;;;5.00;;
38224;SDS011;24025;48.138;11.428;2023-08-24T04:00:25;6.00;;;5.40;;
38224;SDS011;24025;48.138;11.428;2023-08-24T04:02:57;9.25;;;5.32;;
38224;SDS011;24025;48.138;11.428;2023-08-24T04:05:29;12.85;;;5.68;;
38224;SDS011;24025;48.138;11.428;2023-08-24T04:08:00;7.55;;;5.75;;
38224;SDS011;24025;48.138;11.428;2023-08-24T04:10:33;7.82;;;5.28;;
38224;SDS011;24025;48.138;11.428;2023-08-24T04:13:05;7.95;;;6.20;;
38224;SDS011;24025;48.138;11.428;2023-08-24T04:15:36;7.82;;;5.57;;
38224;SDS011;24025;48.138;11.428;2023-08-24T04:18:08;7.10;;;5.22;;
38224;SDS011;24025;48.138;11.428;2023-08-24T04:23:13;8.43;;;5.13;;
38224;SDS011;24025;48.138;11.428;2023-08-24T04:25:45;10.98;;;5.63;;
38224;SDS011;24025;48.138;11.428;2023-08-24T04:28:16;7.65;;;5.13;;
38224;SDS011;24025;48.138;11.428;2023-08-24T04:30:51;6.97;;;5.18;;
38224;SDS011;24025;48.138;11.428;2023-08-24T04:33:28;10.23;;;5.78;;
38224;SDS011;24025;48.138;11.428;2023-08-24T04:36:01;5.88;;;5.25;;
38224;SDS011;24025;48.138;11.428;2023-08-24T04:38:34;9.48;;;5.00;;
38224;SDS011;24025;48.138;11.428;2023-08-24T04:41:07;7.30;;;5.30;;
38224;SDS011;24025;48.138;11.428;2023-08-24T04:43:40;6.97;;;5.03;;
38224;SDS011;24025;48.138;11.428;2023-08-24T04:46:11;7.93;;;5.20;;
38224;SDS011;24025;48.138;11.428;2023-08-24T04:48:43;12.55;;;5.32;;
38224;SDS011;24025;48.138;11.428;2023-08-24T04:51:15;10.98;;;5.07;;
38224;SDS011;24025;48.138;11.428;2023-08-24T04:53:46;7.32;;;5.28;;
38224;SDS011;24025;48.138;11.428;2023-08-24T04:56:18;8.73;;;5.60;;
38224;SDS011;24025;48.138;11.428;2023-08-24T04:58:54;9.10;;;5.32;;
38224;SDS011;24025;48.138;11.428;2023-08-24T05:01:28;8.43;;;5.60;;
38224;SDS011;24025;48.138;11.428;2023-08-24T05:04:03;8.60;;;5.30;;
38224;SDS011;24025;48.138;11.428;2023-08-24T05:06:35;8.07;;;5.32;;
38224;SDS011;24025;48.138;11.428;2023-08-24T05:09:07;7.07;;;4.97;;
38224;SDS011;24025;48.138;11.428;2023-08-24T05:11:39;6.78;;;5.10;;
38224;SDS011;24025;48.138;11.428;2023-08-24T05:14:11;7.03;;;5.90;;
38224;SDS011;24025;48.138;11.428;2023-08-24T05:16:44;7.85;;;5.50;;
38224;SDS011;24025;48.138;11.428;2023-08-24T05:19:16;8.57;;;5.78;;
38224;SDS011;24025;48.138;11.428;2023-08-24T05:21:47;8.70;;;5.28;;
38224;SDS011;24025;48.138;11.428;2023-08-24T05:24:19;9.68;;;5.28;;
38224;SDS011;24025;48.138;11.428;2023-08-24T05:26:50;10.45;;;5.78;;
38224;SDS011;24025;48.138;11.428;2023-08-24T05:29:22;6.25;;;5.65;;
38224;SDS011;24025;48.138;11.428;2023-08-24T05:31:53;11.80;;;6.55;;
38224;SDS011;24025;48.138;11.428;2023-08-24T05:34:25;7.45;;;6.38;;
38224;SDS011;24025;48.138;11.428;2023-08-24T05:36:56;14.73;;;7.00;;
38224;SDS011;24025;48.138;11.428;2023-08-24T05:39:28;22.20;;;8.73;;
38224;SDS011;24025;48.138;11.428;2023-08-24T05:42:00;22.67;;;6.32;;
38224;SDS011;24025;48.138;11.428;2023-08-24T05:44:32;14.75;;;6.40;;
38224;SDS011;24025;48.138;11.428;2023-08-24T05:47:03;18.85;;;6.05;;
38224;SDS011;24025;48.138;11.428;2023-08-24T05:49:35;14.80;;;6.97;;
38224;SDS011;24025;48.138;11.428;2023-08-24T05:52:06;7.40;;;5.95;;
38224;SDS011;24025;48.138;11.428;2023-08-24T05:54:38;10.40;;;6.03;;
38224;SDS011;24025;48.138;11.428;2023-08-24T05:59:41;9.07;;;6.57;;
38224;SDS011;24025;48.138;11.428;2023-08-24T06:02:13;10.20;;;6.55;;
38224;SDS011;24025;48.138;11.428;2023-08-24T06:04:44;7.38;;;6.65;;
38224;SDS011;24025;48.138;11.428;2023-08-24T06:07:16;10.73;;;6.88;;
38224;SDS011;24025;48.138;11.428;2023-08-24T06:09:48;10.25;;;6.88;;
38224;SDS011;24025;48.138;11.428;2023-08-24T06:12:19;12.88;;;6.30;;
38224;SDS011;24025;48.138;11.428;2023-08-24T06:14:51;12.88;;;7.78;;
38224;SDS011;24025;48.138;11.428;2023-08-24T06:17:23;14.85;;;6.43;;
38224;SDS011;24025;48.138;11.428;2023-08-24T06:19:54;11.32;;;6.22;;
38224;SDS011;24025;48.138;11.428;2023-08-24T06:22:26;8.98;;;6.18;;
38224;SDS011;24025;48.138;11.428;2023-08-24T06:24:57;12.93;;;7.65;;
38224;SDS011;24025;48.138;11.428;2023-08-24T06:27:31;10.45;;;5.85;;
38224;SDS011;24025;48.138;11.428;2023-08-24T06:30:03;13.07;;;6.65;;
38224;SDS011;24025;48.138;11.428;2023-08-24T06:32:35;9.07;;;5.97;;
38224;SDS011;24025;48.138;11.428;2023-08-24T06:35:08;8.55;;;5.95;;
38224;SDS011;24025;48.138;11.428;2023-08-24T06:37:40;9.48;;;6.50;;
38224;SDS011;24025;48.138;11.428;2023-08-24T06:40:11;9.23;;;5.95;;
38224;SDS011;24025;48.138;11.428;2023-08-24T06:42:43;6.30;;;5.60;;
38224;SDS011;24025;48.138;11.428;2023-08-24T06:45:14;9.55;;;6.10;;
38224;SDS011;24025;48.138;11.428;2023-08-24T06:47:46;9.43;;;5.53;;
38224;SDS011;24025;48.138;11.428;2023-08-24T06:50:18;10.05;;;6.20;;
38224;SDS011;24025;48.138;11.428;2023-08-24T06:52:53;13.57;;;6.53;;
38224;SDS011;24025;48.138;11.428;2023-08-24T06:55:24;5.88;;;5.25;;
38224;SDS011;24025;48.138;11.428;2023-08-24T07:00:28;13.23;;;5.32;;
38224;SDS011;24025;48.138;11.428;2023-08-24T07:02:59;6.00;;;4.95;;
38224;SDS011;24025;48.138;11.428;2023-08-24T07:05:31;8.10;;;4.72;;
38224;SDS011;24025;48.138;11.428;2023-08-24T07:08:03;6.65;;;4.85;;
38224;SDS011;24025;48.138;11.428;2023-08-24T07:10:35;5.82;;;4.90;;
38224;SDS011;24025;48.138;11.428;2023-08-24T07:13:07;5.55;;;5.00;;
38224;SDS011;24025;48.138;11.428;2023-08-24T07:18:11;8.25;;;5.10;;
38224;SDS011;24025;48.138;11.428;2023-08-24T07:23:14;5.72;;;4.55;;
38224;SDS011;24025;48.138;11.428;2023-08-24T07:25:45;8.05;;;5.55;;
38224;SDS011;24025;48.138;11.428;2023-08-24T07:28:17;7.20;;;4.90;;
38224;SDS011;24025;48.138;11.428;2023-08-24T07:30:49;7.07;;;5.03;;
38224;SDS011;24025;48.138;11.428;2023-08-24T07:33:21;12.48;;;5.75;;
38224;SDS011;24025;48.138;11.428;2023-08-24T07:35:52;7.82;;;5.05;;
38224;SDS011;24025;48.138;11.428;2023-08-24T07:38:24;7.28;;;5.68;;
38224;SDS011;24025;48.138;11.428;2023-08-24T07:40:56;7.25;;;5.75;;
38224;SDS011;24025;48.138;11.428;2023-08-24T07:43:28;9.05;;;5.93;;
38224;SDS011;24025;48.138;11.428;2023-08-24T07:46:00;9.60;;;5.60;;
38224;SDS011;24025;48.138;11.428;2023-08-24T07:48:32;7.47;;;5.40;;
38224;SDS011;24025;48.138;11.428;2023-08-24T07:51:03;12.07;;;5.40;;
38224;SDS011;24025;48.138;11.428;2023-08-24T07:53:35;5.60;;;5.10;;
38224;SDS011;24025;48.138;11.428;2023-08-24T07:58:38;11.52;;;6.18;;
38224;SDS011;24025;48.138;11.428;2023-08-24T08:01:11;11.93;;;5.13;;
38224;SDS011;24025;48.138;11.428;2023-08-24T08:03:42;6.85;;;5.65;;
38224;SDS011;24025;48.138;11.428;2023-08-24T08:06:14;7.18;;;5.10;;
38224;SDS011;24025;48.138;11.428;2023-08-24T08:08:45;7.28;;;5.13;;
38224;SDS011;24025;48.138;11.428;2023-08-24T08:11:18;10.23;;;5.38;;
38224;SDS011;24025;48.138;11.428;2023-08-24T08:13:49;6.85;;;5.22;;
38224;SDS011;24025;48.138;11.428;2023-08-24T08:16:21;8.30;;;5.47;;
38224;SDS011;24025;48.138;11.428;2023-08-24T08:18:53;9.20;;;5.40;;
38224;SDS011;24025;48.138;11.428;2023-08-24T08:23:56;10.05;;;5.20;;
38224;SDS011;24025;48.138;11.428;2023-08-24T08:26:27;8.48;;;5.80;;
38224;SDS011;24025;48.138;11.428;2023-08-24T08:29:00;12.60;;;5.32;;
38224;SDS011;24025;48.138;11.428;2023-08-24T08:31:31;10.40;;;5.40;;
38224;SDS011;24025;48.138;11.428;2023-08-24T08:36:37;10.38;;;5.07;;
38224;SDS011;24025;48.138;11.428;2023-08-24T08:39:09;9.23;;;5.53;;
38224;SDS011;24025;48.138;11.428;2023-08-24T08:44:15;11.25;;;5.38;;
38224;SDS011;24025;48.138;11.428;2023-08-24T08:49:20;17.15;;;6.10;;
38224;SDS011;24025;48.138;11.428;2023-08-24T08:51:51;9.75;;;5.68;;
38224;SDS011;24025;48.138;11.428;2023-08-24T08:54:24;8.77;;;5.55;;
38224;SDS011;24025;48.138;11.428;2023-08-24T08:56:55;8.55;;;5.47;;
38224;SDS011;24025;48.138;11.428;2023-08-24T09:02:02;10.13;;;4.70;;
38224;SDS011;24025;48.138;11.428;2023-08-24T09:04:34;8.38;;;4.75;;
38224;SDS011;24025;48.138;11.428;2023-08-24T09:07:06;9.70;;;4.70;;
38224;SDS011;24025;48.138;11.428;2023-08-24T09:09:42;12.43;;;5.53;;
38224;SDS011;24025;48.138;11.428;2023-08-24T09:12:16;7.28;;;5.35;;
38224;SDS011;24025;48.138;11.428;2023-08-24T09:14:47;7.18;;;4.78;;
38224;SDS011;24025;48.138;11.428;2023-08-24T09:19:55;8.50;;;4.53;;
38224;SDS011;24025;48.138;11.428;2023-08-24T09:22:33;5.30;;;4.78;;
38224;SDS011;24025;48.138;11.428;2023-08-24T09:25:10;10.38;;;5.00;;
38224;SDS011;24025;48.138;11.428;2023-08-24T09:27:42;11.50;;;6.00;;
38224;SDS011;24025;48.138;11.428;2023-08-24T09:30:14;11.13;;;4.75;;
38224;SDS011;24025;48.138;11.428;2023-08-24T09:32:46;13.95;;;4.55;;
38224;SDS011;24025;48.138;11.428;2023-08-24T09:35:19;7.22;;;4.80;;
38224;SDS011;24025;48.138;11.428;2023-08-24T09:37:52;8.15;;;4.38;;
38224;SDS011;24025;48.138;11.428;2023-08-24T09:40:24;6.32;;;4.55;;
38224;SDS011;24025;48.138;11.428;2023-08-24T09:42:59;6.97;;;4.70;;
38224;SDS011;24025;48.138;11.428;2023-08-24T09:45:33;10.15;;;4.53;;
38224;SDS011;24025;48.138;11.428;2023-08-24T09:48:05;10.68;;;5.28;;
38224;SDS011;24025;48.138;11.428;2023-08-24T09:50:37;4.47;;;4.07;;
38224;SDS011;24025;48.138;11.428;2023-08-24T09:53:10;9.45;;;4.47;;
38224;SDS011;24025;48.138;11.428;2023-08-24T09:56:00;7.75;;;4.80;;
38224;SDS011;24025;48.138;11.428;2023-08-24T09:58:32;8.35;;;4.38;;
38224;SDS011;24025;48.138;11.428;2023-08-24T10:01:05;8.10;;;4.28;;
38224;SDS011;24025;48.138;11.428;2023-08-24T10:03:37;15.75;;;4.85;;
38224;SDS011;24025;48.138;11.428;2023-08-24T10:06:11;7.63;;;3.88;;
38224;SDS011;24025;48.138;11.428;2023-08-24T10:08:47;5.07;;;3.72;;
38224;SDS011;24025;48.138;11.428;2023-08-24T10:11:30;12.00;;;3.97;;
38224;SDS011;24025;48.138;11.428;2023-08-24T10:17:02;6.82;;;4.20;;
38224;SDS011;24025;48.138;11.428;2023-08-24T10:19:34;9.75;;;3.92;;
38224;SDS011;24025;48.138;11.428;2023-08-24T10:22:07;3.88;;;3.42;;
38224;SDS011;24025;48.138;11.428;2023-08-24T10:24:39;7.28;;;3.30;;
38224;SDS011;24025;48.138;11.428;2023-08-24T10:27:10;9.52;;;3.25;;
38224;SDS011;24025;48.138;11.428;2023-08-24T10:29:43;5.28;;;3.78;;
38224;SDS011;24025;48.138;11.428;2023-08-24T10:34:46;6.70;;;3.30;;
38224;SDS011;24025;48.138;11.428;2023-08-24T10:37:24;10.00;;;4.32;;
38224;SDS011;24025;48.138;11.428;2023-08-24T10:39:57;5.55;;;3.35;;
38224;SDS011;24025;48.138;11.428;2023-08-24T10:45:14;12.20;;;3.88;;
38224;SDS011;24025;48.138;11.428;2023-08-24T10:47:46;11.50;;;3.88;;
38224;SDS011;24025;48.138;11.428;2023-08-24T10:50:18;5.50;;;3.55;;
38224;SDS011;24025;48.138;11.428;2023-08-24T10:52:50;4.03;;;3.45;;
38224;SDS011;24025;48.138;11.428;2023-08-24T10:55:23;7.82;;;3.92;;
38224;SDS011;24025;48.138;11.428;2023-08-24T10:57:57;5.03;;;3.47;;
38224;SDS011;24025;48.138;11.428;2023-08-24T11:00:32;8.00;;;3.70;;
38224;SDS011;24025;48.138;11.428;2023-08-24T11:03:03;7.57;;;3.92;;
38224;SDS011;24025;48.138;11.428;2023-08-24T11:05:35;6.75;;;3.35;;
38224;SDS011;24025;48.138;11.428;2023-08-24T11:08:07;9.70;;;3.92;;
38224;SDS011;24025;48.138;11.428;2023-08-24T11:13:14;7.15;;;3.42;;
38224;SDS011;24025;48.138;11.428;2023-08-24T11:15:47;7.47;;;3.40;;
38224;SDS011;24025;48.138;11.428;2023-08-24T11:18:22;8.57;;;3.53;;
38224;SDS011;24025;48.138;11.428;2023-08-24T11:23:36;9.23;;;3.55;;
38224;SDS011;24025;48.138;11.428;2023-08-24T11:26:08;7.30;;;3.40;;
38224;SDS011;24025;48.138;11.428;2023-08-24T11:28:40;11.27;;;4.10;;
38224;SDS011;24025;48.138;11.428;2023-08-24T11:31:12;6.93;;;3.25;;
38224;SDS011;24025;48.138;11.428;2023-08-24T11:33:43;7.13;;;3.10;;
38224;SDS011;24025;48.138;11.428;2023-08-24T11:36:15;15.13;;;3.53;;
38224;SDS011;24025;48.138;11.428;2023-08-24T11:38:47;5.38;;;3.15;;
38224;SDS011;24025;48.138;11.428;2023-08-24T11:41:19;10.43;;;3.35;;
38224;SDS011;24025;48.138;11.428;2023-08-24T11:43:59;13.25;;;3.50;;
38224;SDS011;24025;48.138;11.428;2023-08-24T11:46:41;6.72;;;2.65;;
38224;SDS011;24025;48.138;11.428;2023-08-24T11:49:13;6.05;;;3.38;;
38224;SDS011;24025;48.138;11.428;2023-08-24T11:51:45;9.52;;;3.83;;
38224;SDS011;24025;48.138;11.428;2023-08-24T11:54:20;11.10;;;3.08;;
38224;SDS011;24025;48.138;11.428;2023-08-24T11:56:52;15.20;;;3.80;;
38224;SDS011;24025;48.138;11.428;2023-08-24T11:59:24;9.60;;;3.28;;
38224;SDS011;24025;48.138;11.428;2023-08-24T12:01:56;10.15;;;4.00;;
38224;SDS011;24025;48.138;11.428;2023-08-24T12:04:28;10.38;;;3.15;;
38224;SDS011;24025;48.138;11.428;2023-08-24T12:06:59;11.10;;;3.30;;
38224;SDS011;24025;48.138;11.428;2023-08-24T12:12:03;8.18;;;3.10;;
38224;SDS011;24025;48.138;11.428;2023-08-24T12:14:42;6.63;;;2.63;;
38224;SDS011;24025;48.138;11.428;2023-08-24T12:17:15;8.60;;;3.28;;
38224;SDS011;24025;48.138;11.428;2023-08-24T12:19:57;11.05;;;3.63;;
38224;SDS011;24025;48.138;11.428;2023-08-24T12:22:38;7.03;;;3.67;;
38224;SDS011;24025;48.138;11.428;2023-08-24T12:25:09;15.93;;;3.13;;
38224;SDS011;24025;48.138;11.428;2023-08-24T12:27:42;13.30;;;3.75;;
38224;SDS011;24025;48.138;11.428;2023-08-24T12:30:13;6.07;;;3.03;;
38224;SDS011;24025;48.138;11.428;2023-08-24T12:32:46;15.05;;;3.13;;
38224;SDS011;24025;48.138;11.428;2023-08-24T12:35:19;10.55;;;3.35;;
38224;SDS011;24025;48.138;11.428;2023-08-24T12:37:50;6.53;;;3.05;;
38224;SDS011;24025;48.138;11.428;2023-08-24T12:40:22;8.00;;;3.80;;
38224;SDS011;24025;48.138;11.428;2023-08-24T12:42:55;8.90;;;3.15;;
38224;SDS011;24025;48.138;11.428;2023-08-24T12:45:27;11.00;;;3.75;;
38224;SDS011;24025;48.138;11.428;2023-08-24T12:47:58;9.23;;;2.97;;
38224;SDS011;24025;48.138;11.428;2023-08-24T12:50:30;10.05;;;3.60;;
38224;SDS011;24025;48.138;11.428;2023-08-24T12:53:02;14.35;;;3.38;;
38224;SDS011;24025;48.138;11.428;2023-08-24T12:55:34;7.78;;;3.38;;
38224;SDS011;24025;48.138;11.428;2023-08-24T12:58:08;12.43;;;3.28;;
38224;SDS011;24025;48.138;11.428;2023-08-24T13:00:40;11.13;;;4.03;;
38224;SDS011;24025;48.138;11.428;2023-08-24T13:03:12;8.63;;;3.50;;
38224;SDS011;24025;48.138;11.428;2023-08-24T13:05:44;14.15;;;3.70;;
38224;SDS011;24025;48.138;11.428;2023-08-24T13:08:16;14.93;;;3.60;;
38224;SDS011;24025;48.138;11.428;2023-08-24T13:10:47;12.50;;;3.40;;
38224;SDS011;24025;48.138;11.428;2023-08-24T13:13:19;10.52;;;3.22;;
38224;SDS011;24025;48.138;11.428;2023-08-24T13:15:52;10.02;;;3.40;;
38224;SDS011;24025;48.138;11.428;2023-08-24T13:18:25;11.60;;;3.53;;
38224;SDS011;24025;48.138;11.428;2023-08-24T13:20:57;5.30;;;3.42;;
38224;SDS011;24025;48.138;11.428;2023-08-24T13:23:29;9.68;;;3.10;;
38224;SDS011;24025;48.138;11.428;2023-08-24T13:26:00;15.85;;;3.92;;
38224;SDS011;24025;48.138;11.428;2023-08-24T13:28:32;8.50;;;3.17;;
38224;SDS011;24025;48.138;11.428;2023-08-24T13:31:04;10.20;;;3.40;;
38224;SDS011;24025;48.138;11.428;2023-08-24T13:33:35;12.43;;;3.60;;
38224;SDS011;24025;48.138;11.428;2023-08-24T13:36:07;7.82;;;3.28;;
38224;SDS011;24025;48.138;11.428;2023-08-24T13:38:39;12.82;;;3.75;;
38224;SDS011;24025;48.138;11.428;2023-08-24T13:41:10;14.63;;;3.95;;
38224;SDS011;24025;48.138;11.428;2023-08-24T13:43:42;7.50;;;3.40;;
38224;SDS011;24025;48.138;11.428;2023-08-24T13:46:14;10.10;;;2.78;;
38224;SDS011;24025;48.138;11.428;2023-08-24T13:48:45;10.35;;;3.53;;
38224;SDS011;24025;48.138;11.428;2023-08-24T13:51:17;10.10;;;3.25;;
38224;SDS011;24025;48.138;11.428;2023-08-24T13:53:49;9.05;;;3.42;;
38224;SDS011;24025;48.138;11.428;2023-08-24T13:56:21;10.68;;;3.35;;
38224;SDS011;24025;48.138;11.428;2023-08-24T13:58:52;10.95;;;3.42;;
38224;SDS011;24025;48.138;11.428;2023-08-24T14:01:24;15.73;;;3.70;;
38224;SDS011;24025;48.138;11.428;2023-08-24T14:03:56;10.63;;;3.70;;
38224;SDS011;24025;48.138;11.428;2023-08-24T14:06:29;16.17;;;3.40;;
38224;SDS011;24025;48.138;11.428;2023-08-24T14:09:00;17.13;;;4.00;;
38224;SDS011;24025;48.138;11.428;2023-08-24T14:11:34;26.20;;;4.15;;
38224;SDS011;24025;48.138;11.428;2023-08-24T14:14:05;11.07;;;3.45;;
38224;SDS011;24025;48.138;11.428;2023-08-24T14:16:37;17.88;;;3.58;;
38224;SDS011;24025;48.138;11.428;2023-08-24T14:19:09;13.40;;;3.95;;
38224;SDS011;24025;48.138;11.428;2023-08-24T14:21:40;13.38;;;3.55;;
38224;SDS011;24025;48.138;11.428;2023-08-24T14:24:15;17.73;;;3.67;;
38224;SDS011;24025;48.138;11.428;2023-08-24T14:26:48;14.75;;;3.75;;
38224;SDS011;24025;48.138;11.428;2023-08-24T14:29:19;18.85;;;3.83;;
38224;SDS011;24025;48.138;11.428;2023-08-24T14:31:51;16.70;;;4.35;;
38224;SDS011;24025;48.138;11.428;2023-08-24T14:34:23;13.95;;;3.92;;
38224;SDS011;24025;48.138;11.428;2023-08-24T14:36:54;16.17;;;3.95;;
38224;SDS011;24025;48.138;11.428;2023-08-24T14:39:26;11.98;;;3.78;;
38224;SDS011;24025;48.138;11.428;2023-08-24T14:41:58;11.20;;;3.78;;
38224;SDS011;24025;48.138;11.428;2023-08-24T14:44:29;13.65;;;3.95;;
38224;SDS011;24025;48.138;11.428;2023-08-24T14:47:01;17.17;;;4.18;;
38224;SDS011;24025;48.138;11.428;2023-08-24T14:49:33;15.38;;;4.80;;
38224;SDS011;24025;48.138;11.428;2023-08-24T14:52:04;19.92;;;4.82;;
38224;SDS011;24025;48.138;11.428;2023-08-24T14:54:36;18.55;;;5.20;;
38224;SDS011;24025;48.138;11.428;2023-08-24T14:57:08;16.53;;;4.47;;
38224;SDS011;24025;48.138;11.428;2023-08-24T14:59:39;22.90;;;6.80;;
38224;SDS011;24025;48.138;11.428;2023-08-24T15:02:11;19.60;;;4.90;;
38224;SDS011;24025;48.138;11.428;2023-08-24T15:04:43;26.10;;;5.70;;
38224;SDS011;24025;48.138;11.428;2023-08-24T15:07:14;16.95;;;4.60;;
38224;SDS011;24025;48.138;11.428;2023-08-24T15:09:46;26.13;;;5.22;;
38224;SDS011;24025;48.138;11.428;2023-08-24T15:12:18;16.23;;;5.30;;
38224;SDS011;24025;48.138;11.428;2023-08-24T15:14:57;18.55;;;5.20;;
38224;SDS011;24025;48.138;11.428;2023-08-24T15:20:02;19.23;;;4.90;;
38224;SDS011;24025;48.138;11.428;2023-08-24T15:22:37;16.15;;;4.50;;
38224;SDS011;24025;48.138;11.428;2023-08-24T15:25:08;15.95;;;4.72;;
38224;SDS011;24025;48.138;11.428;2023-08-24T15:27:40;18.08;;;5.05;;
38224;SDS011;24025;48.138;11.428;2023-08-24T15:30:12;16.25;;;4.90;;
38224;SDS011;24025;48.138;11.428;2023-08-24T15:32:44;20.27;;;4.45;;
38224;SDS011;24025;48.138;11.428;2023-08-24T15:35:15;22.35;;;5.53;;
38224;SDS011;24025;48.138;11.428;2023-08-24T15:37:47;17.50;;;4.45;;
38224;SDS011;24025;48.138;11.428;2023-08-24T15:40:19;21.85;;;5.10;;
38224;SDS011;24025;48.138;11.428;2023-08-24T15:42:50;18.85;;;4.85;;
38224;SDS011;24025;48.138;11.428;2023-08-24T15:45:22;18.25;;;5.45;;
38224;SDS011;24025;48.138;11.428;2023-08-24T15:47:54;24.13;;;5.25;;
38224;SDS011;24025;48.138;11.428;2023-08-24T15:50:27;17.33;;;4.95;;
38224;SDS011;24025;48.138;11.428;2023-08-24T15:52:59;18.83;;;5.50;;
38224;SDS011;24025;48.138;11.428;2023-08-24T15:55:31;21.55;;;5.80;;
38224;SDS011;24025;48.138;11.428;2023-08-24T15:58:03;20.08;;;5.07;;
38224;SDS011;24025;48.138;11.428;2023-08-24T16:00:35;18.23;;;5.40;;
38224;SDS011;24025;48.138;11.428;2023-08-24T16:03:07;15.85;;;5.43;;
38224;SDS011;24025;48.138;11.428;2023-08-24T16:05:38;27.33;;;6.28;;
38224;SDS011;24025;48.138;11.428;2023-08-24T16:08:10;26.55;;;5.60;;
38224;SDS011;24025;48.138;11.428;2023-08-24T16:10:42;21.98;;;5.18;;
38224;SDS011;24025;48.138;11.428;2023-08-24T16:13:15;25.48;;;4.90;;
38224;SDS011;24025;48.138;11.428;2023-08-24T16:15:47;16.95;;;5.18;;
38224;SDS011;24025;48.138;11.428;2023-08-24T16:18:22;18.35;;;5.38;;
38224;SDS011;24025;48.138;11.428;2023-08-24T16:20:57;17.50;;;5.03;;
38224;SDS011;24025;48.138;11.428;2023-08-24T16:23:29;11.32;;;5.18;;
38224;SDS011;24025;48.138;11.428;2023-08-24T16:26:01;9.10;;;5.10;;
38224;SDS011;24025;48.138;11.428;2023-08-24T16:28:33;16.83;;;5.78;;
38224;SDS011;24025;48.138;11.428;2023-08-24T16:31:05;10.55;;;4.70;;
38224;SDS011;24025;48.138;11.428;2023-08-24T16:33:37;13.07;;;4.50;;
38224;SDS011;24025;48.138;11.428;2023-08-24T16:36:10;11.57;;;5.15;;
38224;SDS011;24025;48.138;11.428;2023-08-24T16:38:41;11.98;;;4.60;;
38224;SDS011;24025;48.138;11.428;2023-08-24T16:41:13;12.65;;;4.75;;
38224;SDS011;24025;48.138;11.428;2023-08-24T16:43:45;7.22;;;4.25;;
38224;SDS011;24025;48.138;11.428;2023-08-24T16:46:16;8.05;;;4.45;;